sensor_id;sensor_type;location;lat;lon;timestamp;pressure;altitude;pressure_sealevel;temperature;humidity
33151;BME280;19508;42.578;23.416;2023-04-24T00:02:23;93433.75;;;12.55;54.03
33151;BME280;19508;42.578;23.416;2023-04-24T00:04:49;93427.28;;;12.46;54.64
33151;BME280;19508;42.578;23.416;2023-04-24T00:07:15;93430.56;;;12.43;54.83
33151;BME280;19508;42.578;23.416;2023-04-24T00:09:42;93431.66;;;12.27;55.44
33151;BME280;19508;42.578;23.416;2023-04-24T00:12:08;93430.06;;;12.26;55.45
33151;BME280;19508;42.578;23.416;2023-04-24T00:14:34;93416.00;;;12.34;54.72
33151;BME280;19508;42.578;23.416;2023-04-24T00:17:00;93409.81;;;12.23;54.88
33151;BME280;19508;42.578;23.416;2023-04-24T00:19:30;93411.69;;;12.28;54.98
33151;BME280;19508;42.578;23.416;2023-04-24T00:21:56;93410.94;;;12.07;55.44
33151;BME280;19508;42.578;23.416;2023-04-24T00:24:21;93404.44;;;12.08;55.67
33151;BME280;19508;42.578;23.416;2023-04-24T00:26:47;93411.22;;;11.90;56.39
33151;BME280;19508;42.578;23.416;2023-04-24T00:29:12;93405.25;;;11.68;57.59
33151;BME280;19508;42.578;23.416;2023-04-24T00:31:38;93395.53;;;11.62;57.57
33151;BME280;19508;42.578;23.416;2023-04-24T00:34:03;93407.97;;;11.63;57.63
33151;BME280;19508;42.578;23.416;2023-04-24T00:36:30;93399.84;;;11.52;58.47
33151;BME280;19508;42.578;23.416;2023-04-24T00:38:56;93387.97;;;11.23;59.55
33151;BME280;19508;42.578;23.416;2023-04-24T00:41:22;93399.03;;;11.42;59.35
33151;BME280;19508;42.578;23.416;2023-04-24T00:43:47;93383.97;;;11.46;59.01
33151;BME280;19508;42.578;23.416;2023-04-24T00:46:14;93367.50;;;11.12;60.01
33151;BME280;19508;42.578;23.416;2023-04-24T00:48:39;93377.19;;;11.13;60.47
33151;BME280;19508;42.578;23.416;2023-04-24T00:51:05;93373.94;;;10.95;61.15
33151;BME280;19508;42.578;23.416;2023-04-24T00:53:31;93376.63;;;11.06;61.07
33151;BME280;19508;42.578;23.416;2023-04-24T00:55:57;93382.00;;;11.00;61.49
33151;BME280;19508;42.578;23.416;2023-04-24T00:58:22;93377.72;;;11.15;61.31
33151;BME280;19508;42.578;23.416;2023-04-24T01:00:50;93386.84;;;10.93;62.28
33151;BME280;19508;42.578;23.416;2023-04-24T01:03:19;93382.00;;;10.90;62.40
33151;BME280;19508;42.578;23.416;2023-04-24T01:05:45;93387.38;;;10.90;62.74
33151;BME280;19508;42.578;23.416;2023-04-24T01:08:11;93384.19;;;11.14;61.84
33151;BME280;19508;42.578;23.416;2023-04-24T01:10:38;93390.94;;;11.21;62.07
33151;BME280;19508;42.578;23.416;2023-04-24T01:13:07;93400.91;;;11.36;61.35
33151;BME280;19508;42.578;23.416;2023-04-24T01:15:33;93400.94;;;11.46;60.92
33151;BME280;19508;42.578;23.416;2023-04-24T01:17:58;93394.47;;;11.42;61.10
33151;BME280;19508;42.578;23.416;2023-04-24T01:20:24;93399.31;;;11.35;61.52
33151;BME280;19508;42.578;23.416;2023-04-24T01:22:51;93400.41;;;11.49;61.18
33151;BME280;19508;42.578;23.416;2023-04-24T01:25:16;93397.69;;;11.44;61.51
33151;BME280;19508;42.578;23.416;2023-04-24T01:27:42;93405.53;;;11.51;61.11
33151;BME280;19508;42.578;23.416;2023-04-24T01:30:08;93397.16;;;11.47;61.71
33151;BME280;19508;42.578;23.416;2023-04-24T01:32:35;93384.22;;;11.39;61.38
33151;BME280;19508;42.578;23.416;2023-04-24T01:35:01;93386.94;;;11.39;61.50
33151;BME280;19508;42.578;23.416;2023-04-24T01:37:27;93391.22;;;11.30;61.68
33151;BME280;19508;42.578;23.416;2023-04-24T01:39:52;93395.56;;;11.46;61.58
33151;BME280;19508;42.578;23.416;2023-04-24T01:42:18;93395.25;;;11.27;62.34
33151;BME280;19508;42.578;23.416;2023-04-24T01:44:44;93380.16;;;11.16;62.41
33151;BME280;19508;42.578;23.416;2023-04-24T01:47:10;93385.28;;;11.23;62.31
33151;BME280;19508;42.578;23.416;2023-04-24T01:49:38;93362.63;;;11.14;62.90
33151;BME280;19508;42.578;23.416;2023-04-24T01:52:03;93352.31;;;10.65;66.47
33151;BME280;19508;42.578;23.416;2023-04-24T01:54:28;93348.94;;;10.32;68.69
33151;BME280;19508;42.578;23.416;2023-04-24T01:56:54;93349.81;;;9.96;70.87
33151;BME280;19508;42.578;23.416;2023-04-24T01:59:20;93350.75;;;9.69;73.01
33151;BME280;19508;42.578;23.416;2023-04-24T02:01:45;93344.78;;;9.62;73.66
33151;BME280;19508;42.578;23.416;2023-04-24T02:04:11;93344.59;;;9.31;75.14
33151;BME280;19508;42.578;23.416;2023-04-24T02:06:36;93341.56;;;9.23;76.13
33151;BME280;19508;42.578;23.416;2023-04-24T02:09:02;93336.66;;;9.15;76.73
33151;BME280;19508;42.578;23.416;2023-04-24T02:11:28;93330.41;;;9.09;77.01
33151;BME280;19508;42.578;23.416;2023-04-24T02:13:53;93324.59;;;9.17;76.84
33151;BME280;19508;42.578;23.416;2023-04-24T02:16:19;93319.41;;;9.43;76.78
33151;BME280;19508;42.578;23.416;2023-04-24T02:18:45;93321.06;;;9.49;76.90
33151;BME280;19508;42.578;23.416;2023-04-24T02:21:10;93317.84;;;9.52;76.94
33151;BME280;19508;42.578;23.416;2023-04-24T02:23:36;93313.28;;;9.52;76.86
33151;BME280;19508;42.578;23.416;2023-04-24T02:26:01;93318.38;;;9.49;77.80
33151;BME280;19508;42.578;23.416;2023-04-24T02:28:27;93320.75;;;9.45;77.82
33151;BME280;19508;42.578;23.416;2023-04-24T02:30:52;93316.00;;;9.57;77.41
33151;BME280;19508;42.578;23.416;2023-04-24T02:33:18;93332.28;;;9.41;77.46
33151;BME280;19508;42.578;23.416;2023-04-24T02:35:43;93333.22;;;9.61;76.35
33151;BME280;19508;42.578;23.416;2023-04-24T02:38:08;93328.06;;;9.55;76.65
33151;BME280;19508;42.578;23.416;2023-04-24T02:40:34;93334.41;;;9.76;75.72
33151;BME280;19508;42.578;23.416;2023-04-24T02:42:59;93332.78;;;9.80;75.72
33151;BME280;19508;42.578;23.416;2023-04-24T02:45:25;93325.56;;;9.85;76.60
33151;BME280;19508;42.578;23.416;2023-04-24T02:47:50;93322.03;;;9.75;76.69
33151;BME280;19508;42.578;23.416;2023-04-24T02:50:16;93324.63;;;9.59;77.41
33151;BME280;19508;42.578;23.416;2023-04-24T02:52:41;93331.41;;;9.72;76.50
33151;BME280;19508;42.578;23.416;2023-04-24T02:55:07;93322.47;;;9.61;76.37
33151;BME280;19508;42.578;23.416;2023-04-24T02:57:33;93334.56;;;9.59;76.58
33151;BME280;19508;42.578;23.416;2023-04-24T02:59:59;93332.19;;;9.68;76.74
33151;BME280;19508;42.578;23.416;2023-04-24T03:02:24;93331.81;;;9.49;77.91
33151;BME280;19508;42.578;23.416;2023-04-24T03:04:50;93329.81;;;9.34;79.10
33151;BME280;19508;42.578;23.416;2023-04-24T03:07:15;93329.56;;;9.36;78.48
33151;BME280;19508;42.578;23.416;2023-04-24T03:09:41;93328.81;;;9.45;78.37
33151;BME280;19508;42.578;23.416;2023-04-24T03:12:06;93329.47;;;9.63;77.12
33151;BME280;19508;42.578;23.416;2023-04-24T03:14:32;93343.91;;;9.51;77.71
33151;BME280;19508;42.578;23.416;2023-04-24T03:16:57;93344.41;;;9.48;77.62
33151;BME280;19508;42.578;23.416;2023-04-24T03:19:23;93331.81;;;9.49;77.88
33151;BME280;19508;42.578;23.416;2023-04-24T03:21:49;93334.94;;;9.36;78.47
33151;BME280;19508;42.578;23.416;2023-04-24T03:24:15;93340.69;;;9.17;79.60
33151;BME280;19508;42.578;23.416;2023-04-24T03:26:40;93330.50;;;9.19;79.48
33151;BME280;19508;42.578;23.416;2023-04-24T03:29:06;93329.44;;;9.20;79.44
33151;BME280;19508;42.578;23.416;2023-04-24T03:31:31;93339.41;;;9.25;79.77
33151;BME280;19508;42.578;23.416;2023-04-24T03:33:56;93333.25;;;9.24;79.38
33151;BME280;19508;42.578;23.416;2023-04-24T03:36:22;93342.38;;;9.23;79.84
33151;BME280;19508;42.578;23.416;2023-04-24T03:38:47;93351.81;;;9.31;79.89
33151;BME280;19508;42.578;23.416;2023-04-24T03:41:13;93336.53;;;9.31;79.55
33151;BME280;19508;42.578;23.416;2023-04-24T03:43:38;93347.59;;;9.40;79.17
33151;BME280;19508;42.578;23.416;2023-04-24T03:46:04;93337.41;;;9.47;78.66
33151;BME280;19508;42.578;23.416;2023-04-24T03:48:30;93338.28;;;9.53;78.82
33151;BME280;19508;42.578;23.416;2023-04-24T03:50:55;93342.56;;;9.54;78.56
33151;BME280;19508;42.578;23.416;2023-04-24T03:53:21;93339.88;;;9.49;78.57
33151;BME280;19508;42.578;23.416;2023-04-24T03:55:46;93345.00;;;9.55;79.22
33151;BME280;19508;42.578;23.416;2023-04-24T03:58:12;93337.78;;;9.61;78.63
33151;BME280;19508;42.578;23.416;2023-04-24T04:00:39;93343.22;;;9.66;78.51
33151;BME280;19508;42.578;23.416;2023-04-24T04:03:05;93337.34;;;9.74;78.06
33151;BME280;19508;42.578;23.416;2023-04-24T04:05:31;93338.72;;;9.82;78.01
33151;BME280;19508;42.578;23.416;2023-04-24T04:07:56;93335.84;;;9.94;77.58
33151;BME280;19508;42.578;23.416;2023-04-24T04:10:22;93339.06;;;9.96;76.44
33151;BME280;19508;42.578;23.416;2023-04-24T04:12:47;93346.69;;;10.09;75.49
33151;BME280;19508;42.578;23.416;2023-04-24T04:15:13;93344.00;;;10.09;74.40
33151;BME280;19508;42.578;23.416;2023-04-24T04:17:38;93342.50;;;10.28;73.10
33151;BME280;19508;42.578;23.416;2023-04-24T04:20:04;93352.75;;;10.41;73.10
33151;BME280;19508;42.578;23.416;2023-04-24T04:22:34;93348.50;;;10.56;72.22
33151;BME280;19508;42.578;23.416;2023-04-24T04:24:59;93356.13;;;10.79;71.66
33151;BME280;19508;42.578;23.416;2023-04-24T04:27:25;93358.56;;;10.91;71.25
33151;BME280;19508;42.578;23.416;2023-04-24T04:29:51;93341.06;;;11.09;70.54
33151;BME280;19508;42.578;23.416;2023-04-24T04:32:17;93357.53;;;11.43;70.17
33151;BME280;19508;42.578;23.416;2023-04-24T04:34:43;93358.34;;;11.43;69.08
33151;BME280;19508;42.578;23.416;2023-04-24T04:37:10;93355.09;;;11.62;68.45
33151;BME280;19508;42.578;23.416;2023-04-24T04:39:37;93348.09;;;11.50;68.23
33151;BME280;19508;42.578;23.416;2023-04-24T04:42:03;93361.84;;;11.59;68.50
33151;BME280;19508;42.578;23.416;2023-04-24T04:44:29;93341.88;;;11.91;67.47
33151;BME280;19508;42.578;23.416;2023-04-24T04:46:56;93339.72;;;11.88;68.11
33151;BME280;19508;42.578;23.416;2023-04-24T04:49:22;93347.00;;;11.77;67.72
33151;BME280;19508;42.578;23.416;2023-04-24T04:51:49;93350.25;;;11.84;67.47
33151;BME280;19508;42.578;23.416;2023-04-24T04:54:16;93358.59;;;11.88;67.18
33151;BME280;19508;42.578;23.416;2023-04-24T04:56:41;93356.19;;;11.91;67.27
33151;BME280;19508;42.578;23.416;2023-04-24T04:59:07;93352.38;;;12.02;66.98
33151;BME280;19508;42.578;23.416;2023-04-24T05:01:32;93352.63;;;12.11;66.47
33151;BME280;19508;42.578;23.416;2023-04-24T05:03:58;93363.38;;;12.31;65.82
33151;BME280;19508;42.578;23.416;2023-04-24T05:06:23;93365.75;;;12.43;65.94
33151;BME280;19508;42.578;23.416;2023-04-24T05:08:49;93369.81;;;12.30;66.12
33151;BME280;19508;42.578;23.416;2023-04-24T05:11:15;93370.16;;;12.24;66.66
33151;BME280;19508;42.578;23.416;2023-04-24T05:13:40;93376.41;;;11.99;67.26
33151;BME280;19508;42.578;23.416;2023-04-24T05:16:06;93365.34;;;11.75;67.50
33151;BME280;19508;42.578;23.416;2023-04-24T05:18:31;93375.31;;;12.00;67.35
33151;BME280;19508;42.578;23.416;2023-04-24T05:20:57;93372.88;;;12.03;68.70
33151;BME280;19508;42.578;23.416;2023-04-24T05:23:24;93374.75;;;12.08;67.63
33151;BME280;19508;42.578;23.416;2023-04-24T05:25:50;93361.56;;;11.86;68.13
33151;BME280;19508;42.578;23.416;2023-04-24T05:28:15;93368.22;;;12.34;66.88
33151;BME280;19508;42.578;23.416;2023-04-24T05:30:41;93374.72;;;12.18;67.05
33151;BME280;19508;42.578;23.416;2023-04-24T05:33:06;93382.28;;;12.31;66.74
33151;BME280;19508;42.578;23.416;2023-04-24T05:35:33;93369.56;;;12.32;66.20
33151;BME280;19508;42.578;23.416;2023-04-24T05:37:59;93373.31;;;12.41;66.09
33151;BME280;19508;42.578;23.416;2023-04-24T05:40:24;93377.56;;;12.62;65.38
33151;BME280;19508;42.578;23.416;2023-04-24T05:42:50;93379.09;;;12.79;65.92
33151;BME280;19508;42.578;23.416;2023-04-24T05:45:15;93381.31;;;13.26;64.83
33151;BME280;19508;42.578;23.416;2023-04-24T05:47:42;93384.09;;;13.84;62.57
33151;BME280;19508;42.578;23.416;2023-04-24T05:50:09;93368.28;;;14.25;61.94
33151;BME280;19508;42.578;23.416;2023-04-24T05:52:35;93366.06;;;14.80;60.44
33151;BME280;19508;42.578;23.416;2023-04-24T05:55:00;93375.28;;;15.22;57.29
33151;BME280;19508;42.578;23.416;2023-04-24T05:57:26;93374.53;;;15.35;56.47
33151;BME280;19508;42.578;23.416;2023-04-24T05:59:51;93373.13;;;15.19;56.79
33151;BME280;19508;42.578;23.416;2023-04-24T06:02:17;93373.81;;;15.30;55.84
33151;BME280;19508;42.578;23.416;2023-04-24T06:04:42;93358.41;;;15.63;55.26
33151;BME280;19508;42.578;23.416;2023-04-24T06:07:10;93363.41;;;15.88;53.56
33151;BME280;19508;42.578;23.416;2023-04-24T06:09:35;93363.00;;;16.14;52.32
33151;BME280;19508;42.578;23.416;2023-04-24T06:12:01;93359.88;;;16.20;54.19
33151;BME280;19508;42.578;23.416;2023-04-24T06:14:27;93365.06;;;16.49;52.67
33151;BME280;19508;42.578;23.416;2023-04-24T06:16:53;93354.59;;;17.11;50.96
33151;BME280;19508;42.578;23.416;2023-04-24T06:19:18;93354.75;;;18.10;48.39
33151;BME280;19508;42.578;23.416;2023-04-24T06:21:44;93347.19;;;19.00;46.39
33151;BME280;19508;42.578;23.416;2023-04-24T06:24:09;93342.66;;;18.86;45.01
33151;BME280;19508;42.578;23.416;2023-04-24T06:26:35;93341.31;;;19.32;42.93
33151;BME280;19508;42.578;23.416;2023-04-24T06:29:01;93344.44;;;19.74;43.13
33151;BME280;19508;42.578;23.416;2023-04-24T06:31:26;93353.50;;;20.30;41.26
33151;BME280;19508;42.578;23.416;2023-04-24T06:33:52;93341.88;;;20.97;39.44
33151;BME280;19508;42.578;23.416;2023-04-24T06:36:17;93333.19;;;21.54;39.29
33151;BME280;19508;42.578;23.416;2023-04-24T06:38:43;93335.91;;;21.33;39.43
33151;BME280;19508;42.578;23.416;2023-04-24T06:41:09;93336.31;;;20.76;39.45
33151;BME280;19508;42.578;23.416;2023-04-24T06:43:35;93337.88;;;20.95;38.61
33151;BME280;19508;42.578;23.416;2023-04-24T06:46:00;93345.53;;;20.72;40.15
33151;BME280;19508;42.578;23.416;2023-04-24T06:48:27;93338.41;;;21.47;37.49
33151;BME280;19508;42.578;23.416;2023-04-24T06:50:52;93342.88;;;21.93;35.89
33151;BME280;19508;42.578;23.416;2023-04-24T06:53:18;93346.88;;;22.50;35.80
33151;BME280;19508;42.578;23.416;2023-04-24T06:55:43;93344.94;;;22.50;36.32
33151;BME280;19508;42.578;23.416;2023-04-24T06:58:11;93345.47;;;21.90;36.27
33151;BME280;19508;42.578;23.416;2023-04-24T07:00:36;93347.47;;;21.39;36.68
33151;BME280;19508;42.578;23.416;2023-04-24T07:03:03;93357.25;;;20.17;41.26
33151;BME280;19508;42.578;23.416;2023-04-24T07:05:28;93353.34;;;20.44;40.18
33151;BME280;19508;42.578;23.416;2023-04-24T07:07:54;93364.59;;;20.34;39.56
33151;BME280;19508;42.578;23.416;2023-04-24T07:10:19;93355.59;;;20.24;40.81
33151;BME280;19508;42.578;23.416;2023-04-24T07:12:45;93361.91;;;19.90;40.76
33151;BME280;19508;42.578;23.416;2023-04-24T07:15:11;93361.22;;;19.24;41.29
33151;BME280;19508;42.578;23.416;2023-04-24T07:17:37;93348.22;;;18.73;42.54
33151;BME280;19508;42.578;23.416;2023-04-24T07:20:04;93345.91;;;18.97;44.39
33151;BME280;19508;42.578;23.416;2023-04-24T07:22:30;93341.94;;;19.21;41.81
33151;BME280;19508;42.578;23.416;2023-04-24T07:24:56;93338.28;;;19.42;41.75
33151;BME280;19508;42.578;23.416;2023-04-24T07:27:22;93333.75;;;19.47;41.27
33151;BME280;19508;42.578;23.416;2023-04-24T07:29:47;93346.38;;;18.91;43.33
33151;BME280;19508;42.578;23.416;2023-04-24T07:32:12;93337.47;;;19.42;41.26
33151;BME280;19508;42.578;23.416;2023-04-24T07:34:38;93326.47;;;20.37;40.97
33151;BME280;19508;42.578;23.416;2023-04-24T07:37:03;93326.03;;;21.11;39.76
33151;BME280;19508;42.578;23.416;2023-04-24T07:39:29;93326.34;;;22.02;36.93
33151;BME280;19508;42.578;23.416;2023-04-24T07:41:54;93315.81;;;21.71;36.76
33151;BME280;19508;42.578;23.416;2023-04-24T07:44:20;93321.97;;;21.89;37.18
33151;BME280;19508;42.578;23.416;2023-04-24T07:46:45;93318.88;;;21.28;38.01
33151;BME280;19508;42.578;23.416;2023-04-24T07:49:11;93311.34;;;21.16;37.62
33151;BME280;19508;42.578;23.416;2023-04-24T07:51:36;93312.94;;;21.17;37.26
33151;BME280;19508;42.578;23.416;2023-04-24T07:54:04;93315.13;;;21.53;37.49
33151;BME280;19508;42.578;23.416;2023-04-24T07:56:30;93311.78;;;22.10;38.36
33151;BME280;19508;42.578;23.416;2023-04-24T07:58:56;93313.84;;;22.59;36.13
33151;BME280;19508;42.578;23.416;2023-04-24T08:01:21;93315.03;;;23.06;35.10
33151;BME280;19508;42.578;23.416;2023-04-24T08:03:47;93304.19;;;23.34;35.47
33151;BME280;19508;42.578;23.416;2023-04-24T08:06:12;93301.41;;;23.47;36.35
33151;BME280;19508;42.578;23.416;2023-04-24T08:08:38;93301.97;;;23.40;33.74
33151;BME280;19508;42.578;23.416;2023-04-24T08:11:03;93305.06;;;23.51;33.87
33151;BME280;19508;42.578;23.416;2023-04-24T08:13:28;93298.25;;;23.85;33.95
33151;BME280;19508;42.578;23.416;2023-04-24T08:15:55;93295.28;;;24.06;32.70
33151;BME280;19508;42.578;23.416;2023-04-24T08:18:22;93286.63;;;24.47;32.48
33151;BME280;19508;42.578;23.416;2023-04-24T08:20:47;93290.56;;;24.62;32.38
33151;BME280;19508;42.578;23.416;2023-04-24T08:23:13;93289.19;;;24.12;32.85
33151;BME280;19508;42.578;23.416;2023-04-24T08:25:38;93289.16;;;23.44;33.64
33151;BME280;19508;42.578;23.416;2023-04-24T08:28:06;93282.69;;;24.05;34.06
33151;BME280;19508;42.578;23.416;2023-04-24T08:30:31;93273.69;;;24.20;32.73
33151;BME280;19508;42.578;23.416;2023-04-24T08:32:57;93276.25;;;24.13;32.67
33151;BME280;19508;42.578;23.416;2023-04-24T08:35:22;93269.59;;;24.14;32.50
33151;BME280;19508;42.578;23.416;2023-04-24T08:37:50;93262.22;;;22.97;34.47
33151;BME280;19508;42.578;23.416;2023-04-24T08:40:16;93266.63;;;23.39;34.81
33151;BME280;19508;42.578;23.416;2023-04-24T08:42:43;93271.78;;;23.80;33.47
33151;BME280;19508;42.578;23.416;2023-04-24T08:45:10;93271.13;;;23.06;34.31
33151;BME280;19508;42.578;23.416;2023-04-24T08:47:37;93266.56;;;23.11;36.05
33151;BME280;19508;42.578;23.416;2023-04-24T08:50:03;93269.41;;;23.14;35.07
33151;BME280;19508;42.578;23.416;2023-04-24T08:52:32;93264.50;;;23.72;34.97
33151;BME280;19508;42.578;23.416;2023-04-24T08:54:59;93258.50;;;23.82;35.31
33151;BME280;19508;42.578;23.416;2023-04-24T08:57:25;93254.41;;;24.04;33.10
33151;BME280;19508;42.578;23.416;2023-04-24T08:59:53;93261.22;;;23.95;33.85
33151;BME280;19508;42.578;23.416;2023-04-24T09:02:18;93255.84;;;24.58;33.46
33151;BME280;19508;42.578;23.416;2023-04-24T09:04:45;93263.53;;;24.52;32.97
33151;BME280;19508;42.578;23.416;2023-04-24T09:07:12;93247.66;;;25.44;32.31
33151;BME280;19508;42.578;23.416;2023-04-24T09:09:38;93260.66;;;25.63;33.11
33151;BME280;19508;42.578;23.416;2023-04-24T09:12:04;93252.06;;;25.64;30.75
33151;BME280;19508;42.578;23.416;2023-04-24T09:14:29;93245.00;;;24.65;31.82
33151;BME280;19508;42.578;23.416;2023-04-24T09:16:57;93240.91;;;24.90;32.88
33151;BME280;19508;42.578;23.416;2023-04-24T09:19:22;93248.56;;;25.13;31.49
33151;BME280;19508;42.578;23.416;2023-04-24T09:21:48;93239.19;;;25.52;32.64
33151;BME280;19508;42.578;23.416;2023-04-24T09:24:18;93234.50;;;25.18;31.77
33151;BME280;19508;42.578;23.416;2023-04-24T09:26:45;93241.09;;;25.48;33.25
33151;BME280;19508;42.578;23.416;2023-04-24T09:29:17;93238.56;;;25.24;30.67
33151;BME280;19508;42.578;23.416;2023-04-24T09:31:44;93236.56;;;25.40;31.01
33151;BME280;19508;42.578;23.416;2023-04-24T09:34:10;93222.00;;;24.89;30.67
33151;BME280;19508;42.578;23.416;2023-04-24T09:36:40;93223.53;;;24.55;31.75
33151;BME280;19508;42.578;23.416;2023-04-24T09:39:16;93221.78;;;24.18;32.36
33151;BME280;19508;42.578;23.416;2023-04-24T09:41:51;93225.38;;;23.63;33.51
33151;BME280;19508;42.578;23.416;2023-04-24T09:44:19;93221.06;;;23.38;33.82
33151;BME280;19508;42.578;23.416;2023-04-24T09:46:49;93219.78;;;22.95;33.11
33151;BME280;19508;42.578;23.416;2023-04-24T09:49:16;93224.66;;;23.14;34.03
33151;BME280;19508;42.578;23.416;2023-04-24T09:51:42;93217.00;;;23.07;34.54
33151;BME280;19508;42.578;23.416;2023-04-24T09:54:17;93205.56;;;22.80;36.62
33151;BME280;19508;42.578;23.416;2023-04-24T09:56:45;93214.94;;;22.18;33.97
33151;BME280;19508;42.578;23.416;2023-04-24T09:59:11;93212.66;;;23.18;33.21
33151;BME280;19508;42.578;23.416;2023-04-24T10:01:36;93201.16;;;24.56;31.29
33151;BME280;19508;42.578;23.416;2023-04-24T10:04:03;93200.56;;;25.14;30.93
33151;BME280;19508;42.578;23.416;2023-04-24T10:06:35;93188.50;;;25.02;29.48
33151;BME280;19508;42.578;23.416;2023-04-24T10:09:01;93190.00;;;25.35;30.91
33151;BME280;19508;42.578;23.416;2023-04-24T10:11:27;93186.06;;;26.56;27.93
33151;BME280;19508;42.578;23.416;2023-04-24T10:13:53;93185.75;;;25.57;28.18
33151;BME280;19508;42.578;23.416;2023-04-24T10:16:21;93187.59;;;26.11;29.20
33151;BME280;19508;42.578;23.416;2023-04-24T10:18:48;93179.84;;;25.20;28.96
33151;BME280;19508;42.578;23.416;2023-04-24T10:21:14;93178.63;;;24.86;30.29
33151;BME280;19508;42.578;23.416;2023-04-24T10:23:41;93170.56;;;24.77;29.79
33151;BME280;19508;42.578;23.416;2023-04-24T10:26:09;93164.41;;;23.45;31.06
33151;BME280;19508;42.578;23.416;2023-04-24T10:28:36;93168.78;;;22.94;32.36
33151;BME280;19508;42.578;23.416;2023-04-24T10:31:02;93170.84;;;22.85;31.63
33151;BME280;19508;42.578;23.416;2023-04-24T10:33:30;93170.91;;;23.41;32.37
33151;BME280;19508;42.578;23.416;2023-04-24T10:35:56;93166.03;;;22.94;31.10
33151;BME280;19508;42.578;23.416;2023-04-24T10:38:25;93164.25;;;23.54;31.28
33151;BME280;19508;42.578;23.416;2023-04-24T10:40:57;93163.53;;;24.44;29.84
33151;BME280;19508;42.578;23.416;2023-04-24T10:43:33;93157.94;;;25.46;29.27
33151;BME280;19508;42.578;23.416;2023-04-24T10:46:03;93143.03;;;26.78;27.96
33151;BME280;19508;42.578;23.416;2023-04-24T10:48:29;93132.97;;;26.66;25.97
33151;BME280;19508;42.578;23.416;2023-04-24T10:50:55;93130.41;;;26.77;25.31
33151;BME280;19508;42.578;23.416;2023-04-24T10:53:31;93136.47;;;26.63;25.79
33151;BME280;19508;42.578;23.416;2023-04-24T10:56:07;93144.13;;;25.43;27.16
33151;BME280;19508;42.578;23.416;2023-04-24T10:58:45;93141.63;;;24.83;27.72
33151;BME280;19508;42.578;23.416;2023-04-24T11:01:25;93129.09;;;25.21;27.07
33151;BME280;19508;42.578;23.416;2023-04-24T11:03:55;93128.91;;;24.43;27.74
33151;BME280;19508;42.578;23.416;2023-04-24T11:06:41;93117.78;;;24.24;27.92
33151;BME280;19508;42.578;23.416;2023-04-24T11:09:09;93118.88;;;24.19;29.40
33151;BME280;19508;42.578;23.416;2023-04-24T11:11:38;93118.44;;;24.84;29.59
33151;BME280;19508;42.578;23.416;2023-04-24T11:14:09;93113.56;;;26.13;26.58
33151;BME280;19508;42.578;23.416;2023-04-24T11:16:42;93109.50;;;26.53;24.92
33151;BME280;19508;42.578;23.416;2023-04-24T11:21:46;93124.75;;;25.20;26.57
33151;BME280;19508;42.578;23.416;2023-04-24T11:24:37;93120.03;;;24.03;28.56
33151;BME280;19508;42.578;23.416;2023-04-24T11:37:22;93153.78;;;21.48;32.74
33151;BME280;19508;42.578;23.416;2023-04-24T11:39:51;93171.59;;;20.71;33.53
33151;BME280;19508;42.578;23.416;2023-04-24T11:42:17;93172.84;;;20.14;35.04
33151;BME280;19508;42.578;23.416;2023-04-24T11:44:43;93177.53;;;19.67;38.02
33151;BME280;19508;42.578;23.416;2023-04-24T11:47:08;93192.97;;;19.11;39.38
33151;BME280;19508;42.578;23.416;2023-04-24T11:49:36;93200.03;;;18.20;44.96
33151;BME280;19508;42.578;23.416;2023-04-24T11:52:04;93218.78;;;17.15;51.78
33151;BME280;19508;42.578;23.416;2023-04-24T11:54:30;93197.81;;;16.29;55.79
33151;BME280;19508;42.578;23.416;2023-04-24T11:56:56;93201.84;;;16.04;58.24
33151;BME280;19508;42.578;23.416;2023-04-24T11:59:22;93188.19;;;15.82;55.37
33151;BME280;19508;42.578;23.416;2023-04-24T12:01:48;93180.25;;;15.99;59.16
33151;BME280;19508;42.578;23.416;2023-04-24T12:04:16;93185.25;;;16.20;57.84
33151;BME280;19508;42.578;23.416;2023-04-24T12:07:01;93169.78;;;16.56;58.16
33151;BME280;19508;42.578;23.416;2023-04-24T12:09:27;93165.06;;;16.76;57.59
33151;BME280;19508;42.578;23.416;2023-04-24T12:11:53;93166.66;;;16.99;59.30
33151;BME280;19508;42.578;23.416;2023-04-24T12:14:22;93153.13;;;17.30;58.07
33151;BME280;19508;42.578;23.416;2023-04-24T12:16:48;93134.13;;;17.39;53.83
33151;BME280;19508;42.578;23.416;2023-04-24T12:19:21;93131.84;;;17.63;55.90
33151;BME280;19508;42.578;23.416;2023-04-24T12:22:05;93107.16;;;17.91;58.05
33151;BME280;19508;42.578;23.416;2023-04-24T12:24:31;93119.72;;;17.69;58.42
33151;BME280;19508;42.578;23.416;2023-04-24T12:26:57;93125.75;;;17.97;53.39
33151;BME280;19508;42.578;23.416;2023-04-24T12:29:24;93139.75;;;17.73;54.27
33151;BME280;19508;42.578;23.416;2023-04-24T12:31:53;93147.78;;;17.25;57.25
33151;BME280;19508;42.578;23.416;2023-04-24T12:36:45;93165.97;;;15.94;61.78
33151;BME280;19508;42.578;23.416;2023-04-24T12:39:20;93179.28;;;15.49;63.42
33151;BME280;19508;42.578;23.416;2023-04-24T12:41:58;93172.09;;;15.26;67.25
33151;BME280;19508;42.578;23.416;2023-04-24T12:44:31;93166.81;;;15.02;70.83
33151;BME280;19508;42.578;23.416;2023-04-24T12:46:57;93148.16;;;14.81;72.28
33151;BME280;19508;42.578;23.416;2023-04-24T12:49:23;93122.75;;;14.77;73.82
33151;BME280;19508;42.578;23.416;2023-04-24T12:51:48;93092.94;;;14.77;75.55
33151;BME280;19508;42.578;23.416;2023-04-24T12:54:14;93092.00;;;15.01;73.21
33151;BME280;19508;42.578;23.416;2023-04-24T12:56:39;93108.50;;;15.18;72.74
33151;BME280;19508;42.578;23.416;2023-04-24T12:59:05;93096.47;;;15.38;71.82
33151;BME280;19508;42.578;23.416;2023-04-24T13:01:30;93077.00;;;15.63;71.01
33151;BME280;19508;42.578;23.416;2023-04-24T13:03:56;93092.25;;;16.00;70.33
33151;BME280;19508;42.578;23.416;2023-04-24T13:06:21;93076.19;;;15.90;70.96